Time;durP1;ratioP1;P1;durP2;ratioP2;P2;SDS_P1;SDS_P2;PMS_P1;PMS_P2;Temp;Humidity;BMP_temperature;BMP_pressure;BME280_temperature;BME280_humidity;BME280_pressure;Samples;Min_cycle;Max_cycle;Signal;HPM_P1;HPM_P2
2022/11/20 00:02:21;;;;;;;5.37;3.70;;;7.90;99.90;;;;;;4999619;28;20207;-75
2022/11/20 00:04:47;;;;;;;4.13;3.73;;;7.90;99.90;;;;;;5000731;28;20727;-72
2022/11/20 00:07:13;;;;;;;4.60;4.20;;;7.70;99.90;;;;;;4999526;28;20748;-74
2022/11/20 00:09:38;;;;;;;5.70;4.93;;;7.90;99.90;;;;;;4992577;28;20188;-73
2022/11/20 00:12:04;;;;;;;4.57;3.97;;;7.30;99.90;;;;;;5002149;28;20187;-75
2022/11/20 00:14:30;;;;;;;4.80;4.40;;;7.80;99.90;;;;;;4988777;28;20200;-73
2022/11/20 00:16:55;;;;;;;4.60;4.20;;;7.60;99.90;;;;;;4984944;28;20194;-74
2022/11/20 00:19:21;;;;;;;4.97;4.47;;;7.70;99.90;;;;;;4995527;28;20175;-72
2022/11/20 00:21:47;;;;;;;6.13;5.27;;;7.50;99.90;;;;;;4997122;28;20210;-72
2022/11/20 00:24:12;;;;;;;5.30;4.40;;;7.60;99.90;;;;;;4990489;28;20286;-72
2022/11/20 00:26:38;;;;;;;6.17;4.70;;;7.50;99.90;;;;;;4990781;28;20673;-72
2022/11/20 00:29:04;;;;;;;6.40;5.10;;;7.50;99.90;;;;;;4990384;28;20306;-73
2022/11/20 00:31:30;;;;;;;5.30;4.80;;;7.50;99.90;;;;;;4994693;28;20234;-73
2022/11/20 00:33:56;;;;;;;4.50;4.10;;;7.50;99.90;;;;;;4992060;28;20867;-72
2022/11/20 00:36:26;;;;;;;4.70;4.20;;;7.70;99.90;;;;;;4991205;28;20188;-76
2022/11/20 00:38:57;;;;;;;5.65;4.30;;;7.10;99.90;;;;;;4980493;28;20179;-73
2022/11/20 00:41:23;;;;;;;4.65;4.25;;;7.80;99.90;;;;;;4991304;28;20973;-72
2022/11/20 00:43:51;;;;;;;5.43;4.75;;;7.50;99.90;;;;;;4995074;28;20212;-72
2022/11/20 00:46:18;;;;;;;5.43;4.60;;;7.40;99.90;;;;;;4987172;28;20191;-74
2022/11/20 00:48:45;;;;;;;5.97;4.50;;;7.60;99.90;;;;;;4998486;28;20745;-72
2022/11/20 00:51:15;;;;;;;5.10;4.60;;;7.70;99.90;;;;;;4990426;28;20195;-74
2022/11/20 00:53:42;;;;;;;4.65;4.25;;;7.60;99.90;;;;;;4981985;28;20223;-73
2022/11/20 00:56:11;;;;;;;5.57;5.00;;;7.70;99.90;;;;;;4990519;28;20234;-73
2022/11/20 00:58:39;;;;;;;4.38;3.97;;;7.80;99.90;;;;;;5009555;28;20235;-76
2022/11/20 01:01:07;;;;;;;3.90;3.50;;;7.60;99.90;;;;;;5006768;28;20532;-74
2022/11/20 01:03:35;;;;;;;4.00;3.60;;;7.80;99.90;;;;;;4998203;28;20620;-76
2022/11/20 01:06:06;;;;;;;5.03;4.53;;;7.80;99.90;;;;;;4995416;28;20233;-76
2022/11/20 01:08:34;;;;;;;5.35;3.85;;;7.80;99.90;;;;;;4997015;28;20271;-73
2022/11/20 01:11:01;;;;;;;4.40;3.40;;;7.80;99.90;;;;;;4986930;28;20196;-72
2022/11/20 01:13:37;;;;;;;3.92;3.60;;;8.00;99.90;;;;;;4989645;28;20590;-72
2022/11/20 01:16:14;;;;;;;4.03;3.40;;;8.00;99.90;;;;;;4976228;28;20183;-81
2022/11/20 01:18:45;;;;;;;4.00;3.53;;;7.90;99.90;;;;;;5000638;28;20182;-73
2022/11/20 01:21:15;;;;;;;3.58;3.28;;;8.00;99.90;;;;;;4977455;28;20191;-73
2022/11/20 01:23:42;;;;;;;3.08;2.78;;;8.00;99.90;;;;;;4993666;28;20218;-75
2022/11/20 01:26:13;;;;;;;5.75;3.08;;;7.90;99.90;;;;;;4993274;28;20219;-72
2022/11/20 01:28:40;;;;;;;3.25;2.90;;;7.90;99.90;;;;;;4992143;28;20191;-73
2022/11/20 01:31:26;;;;;;;4.22;3.40;;;8.00;99.90;;;;;;4993793;28;20574;-72
2022/11/20 01:33:54;;;;;;;3.55;2.90;;;8.10;99.90;;;;;;4997732;28;20215;-73
2022/11/20 01:36:22;;;;;;;3.35;3.08;;;7.90;99.90;;;;;;4992232;28;20274;-72
2022/11/20 01:38:51;;;;;;;4.03;3.20;;;8.00;99.90;;;;;;5003472;28;20187;-73
2022/11/20 01:44:02;;;;;;;3.45;3.15;;;7.80;99.90;;;;;;4992418;28;20285;-73
2022/11/20 01:46:28;;;;;;;3.20;2.90;;;8.00;99.90;;;;;;4993859;28;20265;-75
2022/11/20 01:49:09;;;;;;;2.83;2.63;;;7.90;99.90;;;;;;5003173;28;20332;-72
2022/11/20 01:51:39;;;;;;;8.13;4.90;;;8.00;99.90;;;;;;5016348;28;20470;-73
2022/11/20 01:54:08;;;;;;;3.88;3.30;;;7.90;99.90;;;;;;4993296;28;20310;-74
2022/11/20 01:56:39;;;;;;;3.13;2.80;;;7.70;99.90;;;;;;4994036;28;20233;-73
2022/11/20 01:59:08;;;;;;;3.28;2.97;;;7.70;99.90;;;;;;4997506;28;20195;-74
2022/11/20 02:01:34;;;;;;;3.50;3.20;;;7.60;99.90;;;;;;4995320;28;20277;-73
2022/11/20 02:04:01;;;;;;;3.33;3.03;;;7.70;99.90;;;;;;5001108;28;20783;-72
2022/11/20 02:06:31;;;;;;;4.13;3.10;;;7.80;99.90;;;;;;4996271;28;20195;-72
2022/11/20 02:08:57;;;;;;;3.50;3.20;;;7.70;99.90;;;;;;5002364;28;20290;-73
2022/11/20 02:11:22;;;;;;;3.30;3.00;;;7.90;99.90;;;;;;4998572;28;20656;-71
2022/11/20 02:13:49;;;;;;;3.37;3.07;;;7.80;99.90;;;;;;5007851;28;20254;-73
2022/11/20 02:16:50;;;;;;;3.10;2.80;;;7.70;99.90;;;;;;4995384;28;20194;-72
2022/11/20 02:19:31;;;;;;;3.55;3.25;;;7.60;99.90;;;;;;4990218;28;20190;-74
2022/11/20 02:22:21;;;;;;;5.45;2.80;;;7.70;99.90;;;;;;4987352;28;20195;-72
2022/11/20 02:24:48;;;;;;;3.45;3.15;;;7.50;99.90;;;;;;4993265;28;20683;-72
2022/11/20 02:27:16;;;;;;;3.10;2.90;;;7.50;99.90;;;;;;4996303;28;20180;-75
2022/11/20 02:29:57;;;;;;;3.20;2.90;;;7.40;99.90;;;;;;4990849;28;20188;-73
2022/11/20 02:32:33;;;;;;;4.95;3.72;;;7.60;99.90;;;;;;4993976;28;20254;-73
2022/11/20 02:35:19;;;;;;;3.45;3.15;;;7.50;99.90;;;;;;4993079;28;20242;-73
2022/11/20 02:37:48;;;;;;;2.95;2.75;;;7.50;99.90;;;;;;5000317;28;20190;-74
2022/11/20 02:40:14;;;;;;;4.10;3.30;;;7.40;99.90;;;;;;4997088;28;20270;-73
2022/11/20 02:42:40;;;;;;;3.13;2.83;;;7.50;99.90;;;;;;4991620;28;20195;-73
2022/11/20 02:45:06;;;;;;;4.17;3.77;;;7.50;99.90;;;;;;4983825;28;20211;-74
2022/11/20 02:47:33;;;;;;;3.95;3.05;;;7.40;99.90;;;;;;4992523;28;20238;-73
2022/11/20 02:49:59;;;;;;;4.03;2.90;;;7.30;99.90;;;;;;4996314;28;20207;-71
2022/11/20 02:52:26;;;;;;;3.60;3.30;;;7.30;99.90;;;;;;4998586;28;20187;-72
2022/11/20 02:54:52;;;;;;;3.80;2.78;;;7.50;99.90;;;;;;4990767;28;20646;-72
2022/11/20 02:57:17;;;;;;;4.25;3.70;;;7.30;99.90;;;;;;5001607;28;20210;-72
2022/11/20 02:59:43;;;;;;;3.07;2.87;;;7.30;99.90;;;;;;4997918;28;20215;-72
2022/11/20 03:02:09;;;;;;;3.70;3.40;;;7.60;99.90;;;;;;4999871;28;20175;-74
2022/11/20 03:04:34;;;;;;;3.50;3.20;;;7.60;99.90;;;;;;4989503;28;20207;-75
2022/11/20 03:07:00;;;;;;;7.30;3.03;;;7.50;99.90;;;;;;4995737;28;20551;-72
2022/11/20 03:09:26;;;;;;;3.30;3.00;;;7.70;99.90;;;;;;4991348;28;20668;-72
2022/11/20 03:11:52;;;;;;;4.20;3.47;;;7.60;99.90;;;;;;4996779;28;20446;-73
2022/11/20 03:14:17;;;;;;;3.10;2.80;;;7.50;99.90;;;;;;4995728;28;20278;-72
2022/11/20 03:16:43;;;;;;;4.30;3.90;;;7.60;99.90;;;;;;4989610;28;20187;-73
2022/11/20 03:19:09;;;;;;;3.57;3.27;;;7.40;99.90;;;;;;5006756;28;20234;-71
2022/11/20 03:21:35;;;;;;;3.77;3.47;;;7.40;99.90;;;;;;4992296;28;20489;-72
2022/11/20 03:24:01;;;;;;;3.53;3.22;;;7.20;99.90;;;;;;4992076;28;20284;-71
2022/11/20 03:26:27;;;;;;;3.30;3.00;;;7.40;99.90;;;;;;4996200;28;20199;-71
2022/11/20 03:28:58;;;;;;;4.85;3.75;;;7.60;99.90;;;;;;5014009;28;20573;-72
2022/11/20 03:31:40;;;;;;;4.10;3.38;;;7.30;99.90;;;;;;4993711;28;20556;-72
2022/11/20 03:34:07;;;;;;;4.28;3.47;;;7.60;99.90;;;;;;4994992;28;20243;-72
2022/11/20 03:36:33;;;;;;;3.63;3.25;;;7.70;99.90;;;;;;4994776;28;20179;-72
2022/11/20 03:38:59;;;;;;;4.03;3.53;;;7.80;99.90;;;;;;4996264;28;20211;-73
2022/11/20 03:41:28;;;;;;;4.77;4.33;;;7.60;99.90;;;;;;4997398;28;20653;-72
2022/11/20 03:43:56;;;;;;;4.97;3.72;;;7.70;99.90;;;;;;4990568;28;20508;-72
2022/11/20 03:46:22;;;;;;;4.30;3.40;;;7.60;99.90;;;;;;4986882;28;20329;-72
2022/11/20 03:48:49;;;;;;;4.07;3.67;;;7.60;99.90;;;;;;4995714;28;20684;-72
2022/11/20 03:51:16;;;;;;;3.88;3.47;;;7.60;99.90;;;;;;4991175;28;20196;-71
2022/11/20 03:53:43;;;;;;;4.70;3.85;;;7.30;99.90;;;;;;4997073;28;20556;-73
2022/11/20 03:56:11;;;;;;;4.65;3.55;;;7.40;99.90;;;;;;4989716;28;20210;-73
2022/11/20 03:58:40;;;;;;;3.88;3.47;;;7.50;99.90;;;;;;4991745;28;20175;-71
2022/11/20 04:01:12;;;;;;;4.15;3.45;;;7.30;99.90;;;;;;4990940;28;20672;-71
2022/11/20 04:03:38;;;;;;;4.57;3.35;;;7.10;99.90;;;;;;4992521;28;20207;-76
2022/11/20 04:06:07;;;;;;;4.18;3.65;;;7.00;99.90;;;;;;4997240;28;20694;-72
2022/11/20 04:08:33;;;;;;;4.50;4.10;;;7.20;99.90;;;;;;4991307;28;20214;-72
2022/11/20 04:11:13;;;;;;;4.50;3.67;;;7.20;99.90;;;;;;4993417;28;20187;-71
2022/11/20 04:13:40;;;;;;;3.58;3.17;;;7.00;99.90;;;;;;4980686;28;20214;-71
2022/11/20 04:16:07;;;;;;;3.83;3.50;;;7.00;99.90;;;;;;4993332;28;20775;-70
2022/11/20 04:18:33;;;;;;;5.35;3.35;;;7.00;99.90;;;;;;5002013;28;20179;-69
2022/11/20 04:20:59;;;;;;;3.90;3.57;;;6.90;99.90;;;;;;4990085;28;20665;-71
2022/11/20 04:23:26;;;;;;;3.83;3.40;;;7.10;99.90;;;;;;4991555;28;20249;-69
2022/11/20 04:25:51;;;;;;;3.65;3.17;;;7.00;99.90;;;;;;4991177;28;20199;-70
2022/11/20 04:28:17;;;;;;;5.90;3.97;;;6.90;99.90;;;;;;5005430;28;20192;-70
2022/11/20 04:30:43;;;;;;;14.73;11.17;;;7.10;99.90;;;;;;4982797;28;20816;-70
2022/11/20 04:33:09;;;;;;;4.07;3.70;;;7.10;99.90;;;;;;4990662;28;20444;-68
2022/11/20 04:35:35;;;;;;;4.00;3.70;;;7.20;99.90;;;;;;4987560;28;20184;-67
2022/11/20 04:38:01;;;;;;;3.95;3.63;;;7.20;99.90;;;;;;4987501;28;20710;-66
2022/11/20 04:40:30;;;;;;;4.30;3.90;;;7.20;99.90;;;;;;4992092;28;20190;-66
2022/11/20 04:42:56;;;;;;;4.20;3.80;;;7.40;99.90;;;;;;4988486;28;20215;-67
2022/11/20 04:45:24;;;;;;;4.43;4.03;;;7.20;99.90;;;;;;4993097;28;20198;-67
2022/11/20 04:47:50;;;;;;;5.03;4.20;;;6.90;99.90;;;;;;4986646;28;20206;-68
2022/11/20 04:50:15;;;;;;;4.30;3.67;;;6.80;99.90;;;;;;4987931;28;20184;-67
2022/11/20 04:52:41;;;;;;;5.10;4.20;;;7.10;99.90;;;;;;4985746;28;20203;-66
2022/11/20 04:55:07;;;;;;;6.20;3.80;;;7.10;99.90;;;;;;4989860;28;20266;-66
2022/11/20 04:57:32;;;;;;;4.43;4.00;;;7.20;99.90;;;;;;4991042;28;20218;-64
2022/11/20 04:59:58;;;;;;;3.50;3.27;;;7.10;99.90;;;;;;4986117;28;20447;-64
2022/11/20 05:02:24;;;;;;;3.43;3.13;;;7.10;99.90;;;;;;4988237;28;20537;-64
2022/11/20 05:04:49;;;;;;;5.13;4.00;;;7.10;99.90;;;;;;4988392;28;20260;-64
2022/11/20 05:07:15;;;;;;;4.17;3.77;;;6.90;99.90;;;;;;5003423;28;20188;-67
2022/11/20 05:09:40;;;;;;;4.20;3.77;;;6.90;99.90;;;;;;4989209;28;20904;-66
2022/11/20 05:12:08;;;;;;;4.10;3.40;;;7.20;99.90;;;;;;4990369;28;20215;-68
2022/11/20 05:14:34;;;;;;;3.67;3.33;;;7.20;99.90;;;;;;4987859;28;20219;-67
2022/11/20 05:17:00;;;;;;;5.47;3.72;;;7.10;99.90;;;;;;4990685;28;20203;-67
2022/11/20 05:19:25;;;;;;;3.65;3.35;;;7.30;99.90;;;;;;4988691;28;20176;-67
2022/11/20 05:21:51;;;;;;;4.27;3.07;;;7.40;99.90;;;;;;4991091;28;20183;-66
2022/11/20 05:24:16;;;;;;;3.90;3.60;;;7.30;99.90;;;;;;4989642;28;20243;-66
2022/11/20 05:26:42;;;;;;;3.73;3.37;;;7.30;99.90;;;;;;4985557;28;20246;-70
2022/11/20 05:29:13;;;;;;;3.70;3.37;;;7.50;99.90;;;;;;4987101;28;20195;-67
2022/11/20 05:31:40;;;;;;;3.60;3.30;;;7.20;99.90;;;;;;4989553;28;20456;-65
2022/11/20 05:34:06;;;;;;;3.22;3.03;;;7.40;99.90;;;;;;4987613;28;20248;-66
2022/11/20 05:36:33;;;;;;;4.00;3.70;;;7.40;99.90;;;;;;4983104;28;20275;-64
2022/11/20 05:38:58;;;;;;;3.78;3.15;;;7.50;99.90;;;;;;4987086;28;20270;-66
2022/11/20 05:41:24;;;;;;;4.13;3.73;;;7.60;99.90;;;;;;4989801;28;20270;-63
2022/11/20 05:43:50;;;;;;;3.43;3.13;;;7.60;99.90;;;;;;4987525;28;20258;-65
2022/11/20 05:46:19;;;;;;;3.65;3.10;;;7.50;99.90;;;;;;4989313;28;20250;-65
2022/11/20 05:48:45;;;;;;;3.50;3.20;;;7.50;99.90;;;;;;4988350;28;20645;-66
2022/11/20 05:51:14;;;;;;;3.70;3.40;;;7.40;99.90;;;;;;4989204;28;22119;-67
2022/11/20 05:53:40;;;;;;;3.88;3.28;;;7.30;99.90;;;;;;4992771;28;20215;-66
2022/11/20 05:56:11;;;;;;;3.30;2.97;;;7.50;99.90;;;;;;5006084;28;20184;-67
2022/11/20 05:58:37;;;;;;;3.60;3.30;;;7.50;99.90;;;;;;4993607;28;20188;-71
2022/11/20 06:01:07;;;;;;;3.25;3.05;;;7.40;99.90;;;;;;4990190;28;20253;-66
2022/11/20 06:03:33;;;;;;;3.30;2.95;;;7.80;99.90;;;;;;4996241;28;20200;-72
2022/11/20 06:06:00;;;;;;;3.30;3.00;;;7.70;99.90;;;;;;4995081;28;20198;-70
2022/11/20 06:08:25;;;;;;;3.30;3.00;;;7.70;99.90;;;;;;4990818;28;20198;-65
2022/11/20 06:10:51;;;;;;;3.70;3.00;;;8.00;99.90;;;;;;4992493;28;20190;-66
2022/11/20 06:13:17;;;;;;;3.10;2.80;;;8.00;99.90;;;;;;4998058;28;20321;-65
2022/11/20 06:15:48;;;;;;;3.17;2.87;;;8.10;99.90;;;;;;4991748;28;20516;-70
2022/11/20 06:18:14;;;;;;;3.08;2.78;;;7.80;99.90;;;;;;4995575;28;20279;-68
2022/11/20 06:20:40;;;;;;;3.80;3.50;;;7.80;99.90;;;;;;4991497;28;20280;-70
2022/11/20 06:23:06;;;;;;;4.23;3.83;;;8.00;99.90;;;;;;4992878;28;20278;-70
2022/11/20 06:25:31;;;;;;;7.50;5.80;;;8.00;99.90;;;;;;4994864;28;20930;-71
2022/11/20 06:27:57;;;;;;;5.40;4.90;;;7.80;99.90;;;;;;4994465;28;20194;-65
2022/11/20 06:30:23;;;;;;;3.60;3.30;;;8.00;99.90;;;;;;4990960;28;20714;-70
2022/11/20 06:32:48;;;;;;;4.17;3.13;;;7.60;99.90;;;;;;4990683;28;20242;-69
2022/11/20 06:35:14;;;;;;;2.90;2.70;;;7.90;99.90;;;;;;4991106;28;20218;-72
2022/11/20 06:37:40;;;;;;;2.47;2.27;;;7.80;99.90;;;;;;4993140;28;20191;-68
2022/11/20 06:40:06;;;;;;;2.60;2.40;;;7.90;99.90;;;;;;4991236;28;20230;-68
2022/11/20 06:42:32;;;;;;;2.92;2.72;;;7.80;99.90;;;;;;4988591;28;20207;-66
2022/11/20 06:44:58;;;;;;;2.30;2.10;;;7.80;99.90;;;;;;4989135;28;20198;-66
2022/11/20 06:47:23;;;;;;;2.50;2.30;;;7.80;99.90;;;;;;4991106;28;20617;-71
2022/11/20 06:49:49;;;;;;;2.53;2.30;;;8.00;99.90;;;;;;4996372;28;20329;-71
2022/11/20 06:52:14;;;;;;;3.10;2.80;;;7.90;99.90;;;;;;5006858;28;20673;-74
2022/11/20 06:54:40;;;;;;;3.17;2.43;;;8.00;99.90;;;;;;4988901;28;20212;-69
2022/11/20 06:57:06;;;;;;;2.30;2.10;;;7.90;99.90;;;;;;4994222;28;20544;-69
2022/11/20 06:59:31;;;;;;;2.70;2.30;;;7.70;99.90;;;;;;4990254;28;20551;-69
2022/11/20 07:01:57;;;;;;;3.13;2.50;;;7.90;99.90;;;;;;4990177;28;20187;-68
2022/11/20 07:04:23;;;;;;;2.47;2.23;;;7.70;99.90;;;;;;4988641;28;20227;-68
2022/11/20 07:06:48;;;;;;;2.70;2.50;;;8.00;99.90;;;;;;4990017;28;20657;-70
2022/11/20 07:09:14;;;;;;;2.50;2.20;;;7.80;99.90;;;;;;5001109;28;20196;-69
2022/11/20 07:11:40;;;;;;;2.53;2.10;;;7.90;99.90;;;;;;4992832;28;20443;-69
2022/11/20 07:14:05;;;;;;;2.70;2.47;;;7.90;99.90;;;;;;4992871;28;20247;-70
2022/11/20 07:16:32;;;;;;;2.97;2.50;;;7.80;99.90;;;;;;4990895;28;20207;-71
2022/11/20 07:18:58;;;;;;;2.23;2.00;;;7.90;99.90;;;;;;4991134;28;20176;-69
2022/11/20 07:21:24;;;;;;;3.73;2.13;;;7.90;99.90;;;;;;4988538;28;20180;-68
2022/11/20 07:23:49;;;;;;;2.67;2.47;;;7.80;99.90;;;;;;4990014;28;20211;-68
2022/11/20 07:26:15;;;;;;;2.50;2.30;;;8.20;99.90;;;;;;4994774;28;20179;-69
2022/11/20 07:28:44;;;;;;;2.37;2.17;;;7.90;99.90;;;;;;4997487;28;20187;-68
2022/11/20 07:31:11;;;;;;;2.10;1.95;;;8.10;99.90;;;;;;4990060;28;20632;-69
2022/11/20 07:33:37;;;;;;;2.58;2.38;;;8.00;99.90;;;;;;4987878;28;20215;-69
2022/11/20 07:36:03;;;;;;;2.60;2.40;;;8.10;99.90;;;;;;4990454;28;20731;-69
2022/11/20 07:38:29;;;;;;;2.50;2.30;;;8.20;99.90;;;;;;4989145;28;20234;-68
2022/11/20 07:40:57;;;;;;;2.53;2.33;;;8.10;99.90;;;;;;4986817;28;20192;-66
2022/11/20 07:43:23;;;;;;;2.20;2.00;;;8.30;99.90;;;;;;4987774;28;20441;-67
2022/11/20 07:45:49;;;;;;;2.10;2.00;;;8.20;99.90;;;;;;4987500;28;20188;-67
2022/11/20 07:48:14;;;;;;;1.73;1.63;;;8.50;99.90;;;;;;4982322;28;20205;-69
2022/11/20 07:50:40;;;;;;;2.20;2.00;;;8.60;99.90;;;;;;4984716;28;20183;-67
2022/11/20 07:53:06;;;;;;;2.00;1.80;;;8.40;99.90;;;;;;4998819;28;20314;-68
2022/11/20 07:55:32;;;;;;;2.40;2.20;;;8.70;99.90;;;;;;4986332;28;20234;-68
2022/11/20 07:57:58;;;;;;;2.33;2.13;;;8.80;99.90;;;;;;5011675;28;20183;-67
2022/11/20 08:00:25;;;;;;;3.88;2.20;;;8.50;99.90;;;;;;4994514;28;20242;-67
2022/11/20 08:02:51;;;;;;;1.95;1.80;;;8.50;99.90;;;;;;4998696;28;20199;-67
2022/11/20 08:05:17;;;;;;;1.90;1.80;;;8.80;99.90;;;;;;4998725;28;20251;-68
2022/11/20 08:07:43;;;;;;;3.17;2.47;;;8.70;99.90;;;;;;4993088;28;20449;-68
2022/11/20 08:10:12;;;;;;;2.53;2.33;;;8.70;99.90;;;;;;4999649;28;20477;-68
2022/11/20 08:15:33;;;;;;;2.33;2.13;;;8.90;99.90;;;;;;4988510;28;20603;-68
2022/11/20 08:18:04;;;;;;;1.90;1.80;;;8.90;99.90;;;;;;4998226;28;20211;-68
2022/11/20 08:20:29;;;;;;;2.85;2.30;;;8.60;99.90;;;;;;4994773;28;20789;-68
2022/11/20 08:23:03;;;;;;;3.60;3.30;;;8.90;99.90;;;;;;4990171;28;20199;-68
2022/11/20 08:25:29;;;;;;;2.53;2.00;;;8.90;99.90;;;;;;4988326;28;20187;-68
2022/11/20 08:27:58;;;;;;;3.10;2.20;;;9.00;99.90;;;;;;5003651;28;20188;-68
2022/11/20 08:30:23;;;;;;;2.33;2.10;;;8.80;99.90;;;;;;4996157;28;20188;-68
2022/11/20 08:32:49;;;;;;;2.53;1.90;;;8.90;99.90;;;;;;4992651;28;20224;-67
2022/11/20 08:35:15;;;;;;;1.83;1.60;;;9.10;99.90;;;;;;4994456;28;20302;-68
2022/11/20 08:37:41;;;;;;;1.77;1.67;;;9.20;99.90;;;;;;4997079;28;20226;-68
2022/11/20 08:40:10;;;;;;;2.10;1.90;;;9.10;99.90;;;;;;5001940;28;20454;-68
2022/11/20 08:42:35;;;;;;;2.10;1.67;;;8.90;99.90;;;;;;4992073;28;20204;-67
2022/11/20 08:45:01;;;;;;;1.87;1.77;;;9.10;99.90;;;;;;4994673;28;20231;-68
2022/11/20 08:47:27;;;;;;;2.37;1.90;;;9.20;99.90;;;;;;4997545;28;20191;-68
2022/11/20 08:49:52;;;;;;;2.57;1.80;;;9.10;99.90;;;;;;5000511;28;20210;-68
2022/11/20 08:52:21;;;;;;;2.03;1.90;;;9.40;99.90;;;;;;4980632;28;20184;-68
2022/11/20 08:54:46;;;;;;;2.00;1.90;;;9.30;99.90;;;;;;4997947;28;20215;-68
2022/11/20 08:57:12;;;;;;;1.60;1.50;;;9.40;99.90;;;;;;4996782;28;20184;-68
2022/11/20 08:59:38;;;;;;;1.93;1.70;;;9.60;99.90;;;;;;4996352;28;20192;-68
2022/11/20 09:02:03;;;;;;;1.80;1.57;;;9.70;99.90;;;;;;4990212;28;20195;-68
2022/11/20 09:04:29;;;;;;;1.70;1.60;;;9.90;99.90;;;;;;4997878;28;20219;-68
2022/11/20 09:06:55;;;;;;;2.37;2.17;;;9.90;99.90;;;;;;4995815;28;20447;-69
2022/11/20 09:09:20;;;;;;;1.57;1.47;;;10.10;99.90;;;;;;5001125;28;20549;-69
2022/11/20 09:11:46;;;;;;;1.40;1.30;;;10.10;99.90;;;;;;5000185;28;20180;-68
2022/11/20 09:14:12;;;;;;;1.60;1.50;;;10.10;99.90;;;;;;4988954;28;20697;-68
2022/11/20 09:16:37;;;;;;;2.90;1.57;;;10.00;99.90;;;;;;4998256;28;20192;-67
2022/11/20 09:19:03;;;;;;;2.57;2.00;;;9.90;99.90;;;;;;4991879;28;20189;-68
2022/11/20 09:21:29;;;;;;;1.77;1.30;;;9.80;99.90;;;;;;4984713;28;20226;-68
2022/11/20 09:23:54;;;;;;;2.43;1.70;;;9.90;99.90;;;;;;4993891;28;20594;-67
2022/11/20 09:26:20;;;;;;;1.73;1.43;;;9.60;99.90;;;;;;4985922;28;20199;-67
2022/11/20 09:28:46;;;;;;;1.53;1.33;;;9.60;99.90;;;;;;4992122;28;20681;-67
2022/11/20 09:31:24;;;;;;;1.53;1.27;;;9.90;99.90;;;;;;4999495;28;20191;-67
2022/11/20 09:33:49;;;;;;;1.45;1.15;;;9.90;99.90;;;;;;4992688;28;20212;-67
2022/11/20 09:36:18;;;;;;;1.00;0.90;;;9.60;99.90;;;;;;4986800;28;20187;-67
2022/11/20 09:38:46;;;;;;;3.20;2.90;;;9.70;99.90;;;;;;4990868;28;20646;-67
2022/11/20 09:41:29;;;;;;;2.10;1.25;;;9.50;99.90;;;;;;4998813;28;20215;-67
2022/11/20 09:44:05;;;;;;;1.30;1.20;;;9.60;99.90;;;;;;4995123;28;20203;-67
2022/11/20 09:46:36;;;;;;;1.20;1.10;;;9.70;99.90;;;;;;4998016;28;20198;-68
2022/11/20 09:49:35;;;;;;;1.85;1.70;;;9.50;99.90;;;;;;4991045;28;20189;-68
2022/11/20 09:52:26;;;;;;;1.63;1.30;;;9.40;99.90;;;;;;5001942;28;20574;-68
2022/11/20 09:54:54;;;;;;;1.23;1.10;;;9.50;99.90;;;;;;5005340;28;20266;-68
2022/11/20 09:57:25;;;;;;;1.23;1.00;;;9.80;99.90;;;;;;4992686;28;20184;-67
2022/11/20 10:00:02;;;;;;;1.65;0.80;;;10.00;99.90;;;;;;4989667;28;20183;-68
2022/11/20 10:02:39;;;;;;;1.20;1.10;;;9.60;99.90;;;;;;4989950;28;20234;-68
2022/11/20 10:05:27;;;;;;;3.92;0.90;;;10.10;99.90;;;;;;4992935;28;20175;-68
2022/11/20 10:07:55;;;;;;;1.60;1.50;;;9.90;99.90;;;;;;4987479;28;20192;-68
2022/11/20 10:10:33;;;;;;;1.58;1.48;;;9.70;99.90;;;;;;4993258;28;20236;-68
2022/11/20 10:13:16;;;;;;;1.65;1.10;;;10.00;99.90;;;;;;5003477;28;20216;-68
2022/11/20 10:15:56;;;;;;;1.48;1.38;;;9.70;99.90;;;;;;4995374;28;20590;-68
2022/11/20 10:18:59;;;;;;;0.85;0.77;;;9.80;99.90;;;;;;4996020;28;20259;-68
2022/11/20 10:21:53;;;;;;;2.75;1.20;;;9.60;99.90;;;;;;4980075;28;22231;-73
2022/11/20 10:24:28;;;;;;;0.90;0.90;;;9.40;99.90;;;;;;4987724;28;20737;-72
2022/11/20 10:27:39;;;;;;;1.50;1.20;;;9.60;99.90;;;;;;4984736;28;20198;-75
2022/11/20 10:30:10;;;;;;;2.65;1.38;;;9.50;99.90;;;;;;4985140;28;20226;-73
2022/11/20 10:32:46;;;;;;;2.55;1.42;;;9.30;99.90;;;;;;4977783;28;20236;-72
2022/11/20 10:35:18;;;;;;;1.75;1.42;;;9.60;99.90;;;;;;4988001;28;20647;-70
2022/11/20 10:37:51;;;;;;;0.98;0.90;;;9.50;99.90;;;;;;4988540;28;20181;-69
2022/11/20 10:40:28;;;;;;;1.20;1.10;;;9.20;99.90;;;;;;4992721;28;20259;-73
2022/11/20 10:42:58;;;;;;;3.35;2.10;;;9.10;99.90;;;;;;4989002;28;20579;-69
2022/11/20 10:45:24;;;;;;;1.30;1.20;;;9.20;99.90;;;;;;4989170;28;20645;-67
2022/11/20 10:47:55;;;;;;;1.43;1.30;;;9.50;99.90;;;;;;5009287;28;20200;-67
2022/11/20 10:50:22;;;;;;;2.17;1.40;;;9.20;99.90;;;;;;4986183;28;20548;-70
2022/11/20 10:53:14;;;;;;;1.13;1.02;;;9.10;99.90;;;;;;5006935;28;20208;-71
2022/11/20 10:55:50;;;;;;;1.67;1.25;;;9.10;99.90;;;;;;5006692;28;20606;-68
2022/11/20 10:58:19;;;;;;;2.17;1.88;;;9.20;99.90;;;;;;4993582;28;20179;-68
2022/11/20 11:00:45;;;;;;;2.03;1.50;;;9.10;99.90;;;;;;4990749;28;20246;-69
2022/11/20 11:03:31;;;;;;;1.63;1.53;;;9.20;99.90;;;;;;4993718;28;20637;-69
2022/11/20 11:06:07;;;;;;;1.83;1.65;;;9.10;99.90;;;;;;4989376;28;20540;-69
2022/11/20 11:08:38;;;;;;;1.30;1.20;;;8.90;99.90;;;;;;4989009;28;20237;-74
2022/11/20 11:11:19;;;;;;;1.60;1.30;;;9.00;99.90;;;;;;4994944;28;20473;-75
2022/11/20 11:13:44;;;;;;;1.15;1.10;;;9.00;99.90;;;;;;4996667;28;20265;-74
2022/11/20 11:16:48;;;;;;;1.60;1.40;;;9.10;99.90;;;;;;4987115;28;20184;-74
2022/11/20 11:19:14;;;;;;;1.63;1.30;;;9.10;99.90;;;;;;4988556;28;20179;-74
2022/11/20 11:21:51;;;;;;;2.13;1.67;;;9.20;99.90;;;;;;4984240;28;20367;-73
2022/11/20 11:24:22;;;;;;;1.77;1.67;;;9.00;99.90;;;;;;4982679;28;20467;-73
2022/11/20 11:27:06;;;;;;;1.52;1.42;;;8.90;99.90;;;;;;4992141;28;20180;-73
2022/11/20 11:29:32;;;;;;;1.70;1.60;;;9.30;99.90;;;;;;4983262;28;20196;-74
2022/11/20 11:32:15;;;;;;;1.77;1.67;;;9.40;99.90;;;;;;4994314;28;20196;-73
2022/11/20 11:34:41;;;;;;;1.45;1.35;;;9.70;99.90;;;;;;4986605;28;20214;-73
2022/11/20 11:37:21;;;;;;;1.63;1.53;;;9.70;99.90;;;;;;4989103;28;20180;-73
2022/11/20 11:39:48;;;;;;;1.83;1.73;;;9.90;99.90;;;;;;4988485;28;20449;-73
2022/11/20 11:42:18;;;;;;;2.60;2.30;;;9.80;99.90;;;;;;4992179;28;20203;-75
2022/11/20 11:47:31;;;;;;;3.08;2.22;;;10.00;99.90;;;;;;4989694;28;20190;-74
2022/11/20 11:50:09;;;;;;;3.78;2.53;;;10.00;99.90;;;;;;4989091;28;20184;-73
2022/11/20 11:53:07;;;;;;;2.40;2.00;;;10.00;99.90;;;;;;5001532;28;20208;-73
2022/11/20 11:55:35;;;;;;;2.50;1.67;;;9.90;99.90;;;;;;4986338;28;20204;-73
2022/11/20 11:58:16;;;;;;;2.95;1.90;;;10.00;99.90;;;;;;4988828;28;20212;-73
2022/11/20 12:01:00;;;;;;;2.05;1.70;;;10.00;99.90;;;;;;5013233;28;20235;-73
2022/11/20 12:04:09;;;;;;;2.72;2.15;;;9.80;99.90;;;;;;4987716;28;20204;-74
2022/11/20 12:06:37;;;;;;;2.67;2.30;;;9.80;99.90;;;;;;4983835;28;20199;-73
2022/11/20 12:09:08;;;;;;;1.73;1.55;;;10.00;99.90;;;;;;4992912;28;20424;-74
2022/11/20 12:11:52;;;;;;;3.55;1.90;;;10.10;99.90;;;;;;4990737;28;20574;-73
2022/11/20 12:14:30;;;;;;;2.65;1.67;;;10.50;99.90;;;;;;4988390;28;20216;-73
2022/11/20 12:16:57;;;;;;;2.20;2.00;;;10.40;99.90;;;;;;5005390;28;20849;-74
2022/11/20 12:19:23;;;;;;;1.90;1.48;;;10.60;99.90;;;;;;5004880;28;20186;-74
2022/11/20 12:22:10;;;;;;;3.17;2.70;;;10.90;99.90;;;;;;4991865;28;20526;-74
2022/11/20 12:25:10;;;;;;;1.55;1.45;;;11.00;99.90;;;;;;5013211;28;20209;-74
2022/11/20 12:27:39;;;;;;;5.78;1.80;;;11.20;99.90;;;;;;4990402;28;20177;-73
2022/11/20 12:30:09;;;;;;;4.22;2.25;;;11.20;99.90;;;;;;5014113;28;20347;-74
2022/11/20 12:32:58;;;;;;;2.22;2.05;;;11.10;99.90;;;;;;5010914;28;20296;-74
2022/11/20 12:35:47;;;;;;;1.73;1.15;;;11.10;99.90;;;;;;4983399;28;20245;-73
2022/11/20 12:38:18;;;;;;;3.08;1.70;;;11.10;99.90;;;;;;5014182;28;20176;-72
2022/11/20 12:45:09;;;;;;;2.28;1.30;;;11.10;99.90;;;;;;4997348;28;20177;-72
2022/11/20 12:47:46;;;;;;;1.42;1.17;;;11.00;97.50;;;;;;4986653;28;20200;-73
2022/11/20 12:50:17;;;;;;;1.60;1.25;;;11.20;96.80;;;;;;4989198;28;20197;-73
2022/11/20 12:53:07;;;;;;;2.95;1.95;;;11.00;97.10;;;;;;4991274;28;20235;-73
2022/11/20 12:55:59;;;;;;;1.30;1.05;;;11.10;97.00;;;;;;4988017;28;20192;-73
2022/11/20 12:58:48;;;;;;;4.55;1.70;;;11.00;96.00;;;;;;4990948;28;20182;-74
2022/11/20 13:01:44;;;;;;;4.53;1.20;;;10.80;95.70;;;;;;4992856;28;20272;-73
2022/11/20 13:07:09;;;;;;;1.10;1.00;;;10.90;96.40;;;;;;5014470;23;20315;-76
2022/11/20 13:09:48;;;;;;;0.95;0.90;;;10.30;95.80;;;;;;4994557;28;20281;-77
2022/11/20 13:12:49;;;;;;;1.73;0.93;;;10.70;95.90;;;;;;4984316;28;20193;-77
2022/11/20 13:15:35;;;;;;;10.63;1.10;;;10.80;95.50;;;;;;4941160;28;20226;-76
2022/11/20 13:18:05;;;;;;;2.25;1.40;;;10.90;96.60;;;;;;4970144;28;20198;-77
2022/11/20 13:20:32;;;;;;;1.00;0.90;;;10.90;95.70;;;;;;4969010;28;20190;-77
2022/11/20 13:22:58;;;;;;;0.98;0.90;;;10.80;95.80;;;;;;4970143;28;20685;-76
2022/11/20 13:25:28;;;;;;;1.83;1.20;;;11.00;95.90;;;;;;4968050;28;20207;-76
2022/11/20 13:27:58;;;;;;;4.82;2.20;;;10.80;96.20;;;;;;4966349;28;20467;-76